Time;durP1;ratioP1;P1;durP2;ratioP2;P2;SDS_P1;SDS_P2;PMS_P1;PMS_P2;Temp;Humidity;BMP_temperature;BMP_pressure;BME280_temperature;BME280_humidity;BME280_pressure;Samples;Min_cycle;Max_cycle;Signal;HPM_P1;HPM_P2
2023/06/14 00:00:07;;;;;;;6.43;4.50;;;13.70;1.00;;;;;;4995125;28;20457;-72
2023/06/14 00:02:33;;;;;;;5.30;4.90;;;13.70;1.00;;;;;;4994797;28;20175;-72
2023/06/14 00:04:59;;;;;;;5.80;5.20;;;13.60;1.00;;;;;;4993698;28;20459;-71
2023/06/14 00:07:35;;;;;;;4.40;3.77;;;13.60;1.00;;;;;;4995096;28;20177;-71
2023/06/14 00:10:00;;;;;;;5.40;5.00;;;13.60;1.00;;;;;;4995076;28;20431;-71
2023/06/14 00:12:26;;;;;;;5.03;4.53;;;13.50;1.00;;;;;;4993474;28;20478;-71
2023/06/14 00:14:51;;;;;;;5.77;5.17;;;13.40;1.00;;;;;;4994929;28;20180;-71
2023/06/14 00:17:17;;;;;;;5.47;4.97;;;13.30;1.00;;;;;;4994825;28;20173;-70
2023/06/14 00:19:42;;;;;;;5.53;5.03;;;13.40;1.00;;;;;;4994824;28;20197;-71
2023/06/14 00:22:09;;;;;;;6.20;5.37;;;13.30;1.00;;;;;;4994553;28;20224;-70
2023/06/14 00:24:35;;;;;;;4.60;3.80;;;13.20;1.00;;;;;;4994683;28;20205;-71
2023/06/14 00:27:00;;;;;;;8.53;5.00;;;13.10;1.00;;;;;;4993431;28;20420;-71
2023/06/14 00:29:26;;;;;;;5.10;4.50;;;13.10;1.00;;;;;;4994673;28;20189;-72
2023/06/14 00:31:51;;;;;;;6.57;5.83;;;13.10;1.00;;;;;;4994447;28;20656;-70
2023/06/14 00:34:17;;;;;;;4.70;4.30;;;13.00;1.00;;;;;;4994666;28;20540;-70
2023/06/14 00:36:42;;;;;;;5.10;4.60;;;13.00;1.00;;;;;;4994447;28;20183;-70
2023/06/14 00:39:09;;;;;;;6.80;4.43;;;13.00;1.00;;;;;;4994391;28;20299;-71
2023/06/14 00:41:35;;;;;;;4.80;4.40;;;12.90;1.00;;;;;;4994478;28;20175;-71
2023/06/14 00:44:00;;;;;;;4.13;3.67;;;12.90;1.00;;;;;;4994379;28;20794;-71
2023/06/14 00:46:26;;;;;;;6.17;4.80;;;12.80;1.00;;;;;;4994285;28;20286;-70
2023/06/14 00:48:52;;;;;;;6.23;5.43;;;12.80;1.00;;;;;;4994371;28;20199;-70
2023/06/14 00:51:18;;;;;;;4.00;3.70;;;12.80;1.00;;;;;;4994201;28;20176;-70
2023/06/14 00:53:46;;;;;;;5.33;4.83;;;12.70;1.00;;;;;;4994105;28;20407;-71
2023/06/14 00:56:14;;;;;;;4.70;4.27;;;12.70;1.00;;;;;;4994194;28;20649;-70
2023/06/14 00:58:41;;;;;;;6.60;4.97;;;12.60;1.00;;;;;;4992730;28;20450;-70
2023/06/14 01:01:06;;;;;;;6.40;4.90;;;12.60;1.00;;;;;;4992802;28;20430;-71
2023/06/14 01:03:33;;;;;;;4.90;4.33;;;12.60;1.00;;;;;;4993820;28;20756;-70
2023/06/14 01:06:16;;;;;;;5.33;4.43;;;12.60;1.00;;;;;;4993848;28;20221;-72
2023/06/14 01:08:54;;;;;;;9.10;4.77;;;12.60;1.00;;;;;;4993468;28;20935;-70
2023/06/14 01:11:28;;;;;;;5.03;4.53;;;12.50;1.00;;;;;;4993715;28;20414;-71
2023/06/14 01:13:55;;;;;;;4.93;4.43;;;12.50;1.00;;;;;;4993700;28;20979;-71
2023/06/14 01:16:21;;;;;;;5.17;4.30;;;12.50;1.00;;;;;;4993534;28;20482;-70
2023/06/14 01:18:49;;;;;;;6.10;4.40;;;12.50;1.00;;;;;;4993581;28;20450;-71
2023/06/14 01:21:22;;;;;;;4.40;4.00;;;12.40;1.00;;;;;;4993527;28;20219;-70
2023/06/14 01:23:52;;;;;;;5.37;4.87;;;12.40;1.00;;;;;;4993423;28;20423;-70
2023/06/14 01:26:21;;;;;;;5.30;4.30;;;12.30;1.00;;;;;;4992533;28;20513;-71
2023/06/14 01:28:49;;;;;;;6.30;4.33;;;12.30;1.00;;;;;;4992089;28;20505;-70
2023/06/14 01:31:18;;;;;;;5.03;4.50;;;12.30;1.00;;;;;;4993383;28;20852;-71
2023/06/14 01:33:44;;;;;;;4.90;4.50;;;12.20;1.00;;;;;;4993061;28;20419;-71
2023/06/14 01:36:11;;;;;;;5.00;3.87;;;12.20;1.00;;;;;;4993319;28;20422;-71
2023/06/14 01:38:38;;;;;;;5.43;4.43;;;12.20;1.00;;;;;;4993177;28;20553;-71
2023/06/14 01:41:04;;;;;;;6.57;5.33;;;12.10;1.00;;;;;;4993341;28;20538;-71
2023/06/14 01:43:31;;;;;;;3.93;3.53;;;12.10;1.00;;;;;;4992848;28;20419;-71
2023/06/14 01:45:59;;;;;;;14.53;4.70;;;12.10;1.00;;;;;;4993393;28;20523;-70
2023/06/14 01:48:24;;;;;;;4.50;4.10;;;12.10;1.00;;;;;;4993001;28;20422;-70
2023/06/14 01:50:50;;;;;;;5.10;4.60;;;12.00;1.00;;;;;;4993137;28;20436;-71
2023/06/14 01:53:16;;;;;;;4.47;4.07;;;12.00;1.00;;;;;;4991497;28;20187;-71
2023/06/14 01:55:43;;;;;;;4.40;4.00;;;11.90;1.00;;;;;;4992984;28;20278;-70
2023/06/14 01:58:09;;;;;;;6.60;5.57;;;11.90;1.00;;;;;;4991537;28;20425;-70
2023/06/14 02:00:35;;;;;;;4.80;4.20;;;11.90;1.00;;;;;;4993163;28;20428;-70
2023/06/14 02:03:01;;;;;;;5.27;4.30;;;11.80;1.00;;;;;;4992875;28;20746;-70
2023/06/14 02:05:26;;;;;;;5.47;4.40;;;11.80;1.00;;;;;;4992804;28;20455;-71
2023/06/14 02:07:53;;;;;;;4.40;4.00;;;11.80;1.00;;;;;;4992819;28;20176;-70
2023/06/14 02:10:19;;;;;;;5.37;4.90;;;11.80;1.00;;;;;;4992654;28;20194;-71
2023/06/14 02:12:45;;;;;;;3.93;3.60;;;11.70;1.00;;;;;;4992488;28;20907;-70
2023/06/14 02:15:16;;;;;;;10.53;4.10;;;11.70;1.00;;;;;;4992750;28;20490;-71
2023/06/14 02:17:42;;;;;;;4.50;4.10;;;11.70;1.00;;;;;;4992690;28;20421;-70
2023/06/14 02:20:09;;;;;;;5.63;3.83;;;11.70;1.00;;;;;;4990727;28;20882;-70
2023/06/14 02:22:34;;;;;;;4.70;4.30;;;11.70;1.00;;;;;;4992362;28;20424;-71
2023/06/14 02:25:00;;;;;;;4.43;3.60;;;11.70;1.00;;;;;;4991188;28;20463;-70
2023/06/14 02:27:26;;;;;;;3.90;3.60;;;11.60;1.00;;;;;;4992577;28;20174;-70
2023/06/14 02:29:51;;;;;;;5.00;4.30;;;11.60;1.00;;;;;;4991156;28;20657;-71
2023/06/14 02:32:17;;;;;;;5.80;3.93;;;11.60;1.00;;;;;;4992299;28;20519;-71
2023/06/14 02:34:43;;;;;;;4.70;4.23;;;11.60;1.00;;;;;;4992491;28;20649;-70
2023/06/14 02:37:08;;;;;;;4.93;4.13;;;11.60;1.00;;;;;;4992461;28;20179;-70
2023/06/14 02:39:34;;;;;;;4.03;3.73;;;11.60;1.00;;;;;;4992259;28;20218;-70
2023/06/14 02:42:00;;;;;;;4.67;4.27;;;11.50;1.00;;;;;;4992074;28;20263;-70
2023/06/14 02:44:27;;;;;;;4.47;4.10;;;11.50;1.00;;;;;;4992321;28;20493;-70
2023/06/14 02:46:54;;;;;;;4.13;3.60;;;11.50;1.00;;;;;;4992440;28;20172;-71
2023/06/14 02:49:19;;;;;;;4.07;3.77;;;11.40;1.00;;;;;;4992535;28;20433;-71
2023/06/14 02:51:45;;;;;;;5.50;4.67;;;11.40;1.00;;;;;;4992126;28;20489;-72
2023/06/14 02:54:10;;;;;;;4.77;4.27;;;11.40;1.00;;;;;;4991070;28;20641;-71
2023/06/14 02:56:36;;;;;;;4.07;3.67;;;11.30;1.00;;;;;;4991114;28;20194;-70
2023/06/14 02:59:02;;;;;;;6.90;4.10;;;11.30;1.00;;;;;;4992195;28;20283;-71
2023/06/14 03:01:33;;;;;;;6.20;3.47;;;11.30;1.00;;;;;;4992185;28;20177;-71
2023/06/14 03:04:05;;;;;;;5.10;4.30;;;11.20;1.00;;;;;;4992438;28;20414;-70
2023/06/14 03:06:31;;;;;;;3.77;3.40;;;11.20;1.00;;;;;;4992234;28;20511;-70
2023/06/14 03:09:01;;;;;;;3.47;3.17;;;11.20;1.00;;;;;;4992079;28;20445;-70
2023/06/14 03:11:30;;;;;;;5.10;4.27;;;11.20;1.00;;;;;;4992015;28;20171;-70
2023/06/14 03:13:56;;;;;;;8.90;3.90;;;11.20;1.00;;;;;;4992080;28;20471;-71
2023/06/14 03:16:24;;;;;;;4.17;3.67;;;11.20;1.00;;;;;;4992159;28;20832;-70
2023/06/14 03:18:52;;;;;;;6.40;4.77;;;11.10;1.00;;;;;;4991996;28;20464;-70
2023/06/14 03:21:20;;;;;;;4.03;3.63;;;11.10;1.00;;;;;;4992032;28;20412;-70
2023/06/14 03:23:46;;;;;;;4.60;3.77;;;11.20;1.70;;;;;;4991867;28;20417;-70
2023/06/14 03:26:14;;;;;;;4.50;4.00;;;11.10;1.30;;;;;;4991906;28;20496;-70
2023/06/14 03:28:41;;;;;;;5.10;4.60;;;11.10;1.00;;;;;;4990679;28;21259;-70
2023/06/14 03:31:08;;;;;;;5.10;4.07;;;11.00;1.00;;;;;;4992403;28;20818;-70
2023/06/14 03:33:34;;;;;;;5.60;3.80;;;11.10;1.00;;;;;;4995419;28;20438;-70
2023/06/14 03:35:59;;;;;;;5.03;3.97;;;11.00;1.00;;;;;;4995465;28;20453;-71
2023/06/14 03:38:25;;;;;;;5.60;4.73;;;11.00;1.00;;;;;;4995449;28;20644;-70
2023/06/14 03:40:51;;;;;;;5.23;4.10;;;11.00;1.40;;;;;;4995421;28;20670;-70
2023/06/14 03:43:16;;;;;;;5.20;3.77;;;11.00;1.40;;;;;;4995208;28;20189;-70
2023/06/14 03:45:42;;;;;;;4.00;3.70;;;11.00;1.40;;;;;;4995422;28;20193;-70
2023/06/14 03:48:09;;;;;;;4.60;3.90;;;11.00;1.40;;;;;;4995377;28;20176;-70
2023/06/14 03:50:37;;;;;;;5.37;4.17;;;11.00;1.40;;;;;;4994018;28;20184;-71
2023/06/14 03:53:03;;;;;;;4.60;4.07;;;11.00;1.40;;;;;;4994936;28;20423;-71
2023/06/14 03:55:31;;;;;;;4.30;3.60;;;11.00;1.00;;;;;;4995166;28;20450;-71
2023/06/14 03:57:56;;;;;;;5.47;4.40;;;11.00;1.30;;;;;;4993998;28;20453;-70
2023/06/14 04:00:23;;;;;;;4.40;4.03;;;11.00;1.00;;;;;;4995116;28;20462;-70
2023/06/14 04:02:48;;;;;;;4.60;4.10;;;11.10;1.20;;;;;;4994826;28;20170;-70
2023/06/14 04:05:16;;;;;;;5.00;4.50;;;11.10;1.00;;;;;;4994919;28;20467;-70
2023/06/14 04:07:45;;;;;;;4.60;3.73;;;11.10;1.40;;;;;;4994985;28;20170;-71
2023/06/14 04:10:14;;;;;;;5.00;4.50;;;11.20;1.00;;;;;;4993524;28;20444;-70
2023/06/14 04:12:39;;;;;;;4.87;4.07;;;11.20;1.20;;;;;;4994800;28;20426;-70
2023/06/14 04:15:06;;;;;;;8.10;5.47;;;11.20;1.50;;;;;;4995060;28;20418;-70
2023/06/14 04:17:32;;;;;;;5.03;3.77;;;11.20;1.50;;;;;;4994827;28;20181;-71
2023/06/14 04:19:59;;;;;;;6.93;4.87;;;11.20;1.00;;;;;;4994820;28;20479;-71
2023/06/14 04:22:28;;;;;;;4.20;3.10;;;11.30;1.00;;;;;;4994868;28;20991;-71
2023/06/14 04:24:56;;;;;;;4.63;4.17;;;11.30;1.00;;;;;;4994685;28;20456;-70
2023/06/14 04:27:25;;;;;;;4.73;4.33;;;11.40;1.00;;;;;;4993592;28;20429;-70
2023/06/14 04:29:56;;;;;;;6.07;4.90;;;11.40;1.00;;;;;;4994516;28;20439;-71
2023/06/14 04:32:38;;;;;;;5.77;4.37;;;11.50;1.00;;;;;;4994443;28;20415;-71
2023/06/14 04:35:07;;;;;;;5.10;4.20;;;11.50;1.00;;;;;;4994528;28;20478;-71
2023/06/14 04:37:33;;;;;;;6.57;4.40;;;11.60;1.00;;;;;;4994443;28;20422;-70
2023/06/14 04:39:59;;;;;;;3.83;3.40;;;11.70;1.00;;;;;;5027380;23;20810;-75
2023/06/14 04:42:25;;;;;;;5.87;4.37;;;11.80;1.00;;;;;;5012748;28;20421;-75
2023/06/14 04:44:55;;;;;;;5.50;4.10;;;11.70;1.00;;;;;;5012793;28;20210;-75
2023/06/14 04:47:20;;;;;;;5.13;3.70;;;11.90;1.00;;;;;;5013478;28;20419;-75
2023/06/14 04:49:46;;;;;;;5.60;4.43;;;11.90;1.00;;;;;;5013010;28;20451;-75
2023/06/14 04:52:13;;;;;;;6.70;3.80;;;12.00;1.00;;;;;;5012853;28;20201;-75
2023/06/14 04:54:41;;;;;;;8.30;4.70;;;12.10;1.00;;;;;;5012913;28;20262;-75
2023/06/14 04:57:06;;;;;;;6.97;4.67;;;12.10;1.00;;;;;;5012964;28;20418;-75
2023/06/14 04:59:33;;;;;;;5.63;5.13;;;12.20;1.00;;;;;;5012925;28;20518;-75
2023/06/14 05:01:59;;;;;;;4.80;4.33;;;12.40;1.00;;;;;;5012404;28;20259;-75
2023/06/14 05:04:26;;;;;;;5.97;4.23;;;12.50;1.00;;;;;;5012679;28;20498;-75
2023/06/14 05:06:54;;;;;;;5.80;4.60;;;12.50;1.00;;;;;;5012836;28;20419;-75
2023/06/14 05:09:20;;;;;;;6.23;4.77;;;12.60;1.00;;;;;;5012582;28;20434;-75
2023/06/14 05:11:47;;;;;;;5.20;4.10;;;12.70;1.00;;;;;;5012278;28;20862;-75
2023/06/14 05:14:13;;;;;;;7.93;4.67;;;12.90;1.00;;;;;;5012785;28;20706;-74
2023/06/14 05:16:39;;;;;;;15.87;5.07;;;13.00;1.00;;;;;;5012656;28;20447;-75
2023/06/14 05:19:06;;;;;;;5.53;4.57;;;13.20;1.00;;;;;;5013587;28;20439;-75
2023/06/14 05:21:33;;;;;;;5.00;4.33;;;13.30;1.00;;;;;;5013550;28;20567;-75
2023/06/14 05:23:59;;;;;;;4.97;4.37;;;13.50;1.00;;;;;;5013466;28;20505;-75
2023/06/14 05:26:28;;;;;;;7.23;5.13;;;13.60;1.00;;;;;;5013423;28;20537;-75
2023/06/14 05:28:57;;;;;;;8.73;4.50;;;13.70;1.00;;;;;;5013598;28;20338;-76
2023/06/14 05:31:23;;;;;;;6.50;4.97;;;13.80;1.00;;;;;;5012199;28;20796;-75
2023/06/14 05:33:49;;;;;;;6.27;5.67;;;13.90;1.00;;;;;;5013256;28;20415;-75
2023/06/14 05:36:15;;;;;;;5.77;4.97;;;14.10;1.00;;;;;;5013200;28;20421;-75
2023/06/14 05:38:41;;;;;;;4.87;4.30;;;14.20;1.00;;;;;;5012698;28;20415;-75
2023/06/14 05:41:06;;;;;;;6.97;4.93;;;14.50;1.00;;;;;;5013821;28;20653;-75
2023/06/14 05:43:32;;;;;;;6.47;5.60;;;15.40;1.00;;;;;;5013572;28;20205;-74
2023/06/14 05:45:57;;;;;;;6.27;5.77;;;16.70;1.00;;;;;;5014225;28;20214;-75
2023/06/14 05:48:23;;;;;;;6.50;5.90;;;17.00;1.00;;;;;;5012454;28;20555;-75
2023/06/14 05:50:48;;;;;;;7.30;6.70;;;17.10;1.00;;;;;;5013560;28;20620;-76
2023/06/14 05:53:14;;;;;;;7.17;5.97;;;17.60;1.00;;;;;;5011543;28;20629;-74
2023/06/14 05:55:40;;;;;;;6.90;6.13;;;19.70;1.00;;;;;;5012028;28;20554;-75
2023/06/14 05:58:06;;;;;;;6.70;6.20;;;21.60;1.00;;;;;;5013477;28;20567;-76
2023/06/14 06:00:31;;;;;;;8.77;8.07;;;22.80;1.00;;;;;;5015204;28;20206;-76
2023/06/14 06:02:57;;;;;;;7.40;6.80;;;23.90;1.00;;;;;;5015207;28;20255;-74
2023/06/14 06:05:23;;;;;;;8.50;7.50;;;24.60;1.00;;;;;;5012451;28;20230;-74
2023/06/14 06:07:49;;;;;;;11.13;7.50;;;26.40;1.00;;;;;;5012424;28;20407;-74
2023/06/14 06:10:15;;;;;;;8.50;7.07;;;28.10;1.00;;;;;;5013174;28;20195;-74
2023/06/14 06:12:42;;;;;;;9.00;6.40;;;30.60;1.00;;;;;;5012805;28;20403;-74
2023/06/14 06:15:11;;;;;;;7.23;6.00;;;32.30;1.00;;;;;;5012639;28;20182;-75
2023/06/14 06:17:37;;;;;;;7.20;6.50;;;32.40;1.00;;;;;;5013059;28;20968;-74
2023/06/14 06:20:05;;;;;;;8.13;7.43;;;33.10;1.00;;;;;;5013168;28;20438;-74
2023/06/14 06:22:30;;;;;;;7.50;6.10;;;34.80;1.00;;;;;;5012781;28;20175;-74
2023/06/14 06:24:56;;;;;;;8.07;7.13;;;35.50;1.00;;;;;;5013109;28;20510;-74
2023/06/14 06:27:22;;;;;;;7.27;6.57;;;35.30;1.00;;;;;;5013313;28;20187;-74
2023/06/14 06:29:48;;;;;;;8.10;7.03;;;35.60;1.00;;;;;;5012736;28;20218;-74
2023/06/14 06:32:14;;;;;;;7.27;6.70;;;36.30;1.00;;;;;;5012416;28;20176;-74
2023/06/14 06:34:40;;;;;;;7.43;6.77;;;37.10;1.00;;;;;;5013970;28;20502;-75
2023/06/14 06:37:06;;;;;;;8.67;7.83;;;37.30;1.00;;;;;;5012398;28;20498;-74
2023/06/14 06:39:31;;;;;;;7.77;7.07;;;37.00;1.00;;;;;;5012233;28;20249;-74
2023/06/14 06:41:57;;;;;;;7.47;6.97;;;37.30;1.00;;;;;;5013484;28;20183;-74
2023/06/14 06:44:23;;;;;;;8.53;7.93;;;37.10;1.00;;;;;;5012290;28;20183;-74
2023/06/14 06:46:49;;;;;;;8.80;7.83;;;37.40;1.00;;;;;;5012789;28;20510;-75
2023/06/14 06:49:14;;;;;;;7.13;6.63;;;37.10;1.00;;;;;;5016383;28;20191;-75
2023/06/14 06:51:44;;;;;;;8.67;6.53;;;37.00;1.00;;;;;;5015119;28;20179;-75
2023/06/14 06:54:10;;;;;;;8.77;7.97;;;36.70;1.00;;;;;;5016711;28;20172;-77
2023/06/14 06:56:36;;;;;;;8.77;7.70;;;37.50;1.00;;;;;;5015784;28;20526;-76
2023/06/14 06:59:02;;;;;;;8.67;7.63;;;37.50;1.00;;;;;;5014160;28;20967;-76
2023/06/14 07:01:28;;;;;;;12.13;6.70;;;37.90;1.00;;;;;;5012716;28;20275;-76
2023/06/14 07:03:57;;;;;;;7.60;6.93;;;37.30;1.00;;;;;;5015115;28;20176;-76
2023/06/14 07:06:27;;;;;;;7.37;6.77;;;38.00;1.00;;;;;;5015439;28;20454;-74
2023/06/14 07:08:52;;;;;;;7.60;7.00;;;36.80;1.00;;;;;;5017585;28;20802;-74
2023/06/14 07:11:18;;;;;;;6.57;6.07;;;37.30;1.00;;;;;;5016334;28;20422;-74
2023/06/14 07:13:43;;;;;;;7.23;6.73;;;37.70;1.00;;;;;;5017031;28;20187;-74
2023/06/14 07:16:09;;;;;;;7.17;6.40;;;37.40;1.00;;;;;;5018867;28;20548;-75
2023/06/14 07:18:35;;;;;;;9.17;8.37;;;37.50;1.00;;;;;;5017900;28;20650;-75
2023/06/14 07:21:01;;;;;;;6.83;6.33;;;38.60;1.00;;;;;;5017046;28;20180;-74
2023/06/14 07:23:26;;;;;;;7.40;6.80;;;38.40;1.00;;;;;;5016321;28;20179;-74
2023/06/14 07:25:52;;;;;;;6.97;6.33;;;37.60;1.00;;;;;;5017035;28;20465;-74
2023/06/14 07:28:18;;;;;;;6.43;5.93;;;38.20;1.00;;;;;;5016456;28;20222;-75
2023/06/14 07:30:44;;;;;;;7.00;6.40;;;37.60;1.00;;;;;;5016418;28;20665;-75
2023/06/14 07:33:11;;;;;;;8.77;7.27;;;36.80;1.00;;;;;;5016437;28;20491;-75
2023/06/14 07:35:37;;;;;;;9.43;7.80;;;37.00;1.00;;;;;;5016502;28;20172;-75
2023/06/14 07:38:02;;;;;;;9.10;6.73;;;37.00;1.00;;;;;;5016223;28;20442;-74
2023/06/14 07:40:28;;;;;;;8.13;7.43;;;36.10;1.00;;;;;;5015426;28;20216;-75
2023/06/14 07:42:54;;;;;;;6.80;6.23;;;34.90;1.00;;;;;;5015771;28;20180;-74
2023/06/14 07:45:20;;;;;;;8.60;6.07;;;34.80;1.00;;;;;;5016392;28;20246;-75
2023/06/14 07:47:46;;;;;;;7.57;6.87;;;36.90;1.00;;;;;;5016217;28;20411;-75
2023/06/14 07:50:12;;;;;;;8.20;7.50;;;37.00;1.00;;;;;;5016276;28;20192;-75
2023/06/14 07:52:38;;;;;;;6.80;6.30;;;36.10;1.00;;;;;;5015657;28;20180;-74
2023/06/14 07:55:05;;;;;;;7.27;6.73;;;36.50;1.00;;;;;;5016484;28;20752;-74
2023/06/14 07:57:30;;;;;;;7.33;6.83;;;37.10;1.00;;;;;;5016306;28;20176;-75
2023/06/14 07:59:56;;;;;;;8.10;7.60;;;36.80;1.00;;;;;;5016091;28;20529;-74
2023/06/14 08:02:21;;;;;;;7.33;6.83;;;36.80;1.00;;;;;;5015062;28;20184;-74
2023/06/14 08:04:48;;;;;;;6.93;6.43;;;36.30;1.00;;;;;;5016535;28;20242;-75
2023/06/14 08:07:14;;;;;;;7.63;6.80;;;36.40;1.00;;;;;;5019538;28;20165;-75
2023/06/14 08:09:40;;;;;;;8.23;7.63;;;35.50;1.00;;;;;;5015792;28;20480;-73
2023/06/14 08:12:10;;;;;;;7.40;7.00;;;36.00;1.00;;;;;;5014798;28;20411;-74
2023/06/14 08:14:36;;;;;;;14.43;9.30;;;36.80;1.00;;;;;;5014876;28;20669;-74
2023/06/14 08:17:01;;;;;;;7.10;6.50;;;36.50;1.00;;;;;;5014833;28;20493;-74
2023/06/14 08:19:27;;;;;;;7.00;6.50;;;37.70;1.00;;;;;;5013492;28;20277;-75
2023/06/14 08:21:54;;;;;;;9.23;7.97;;;38.10;1.00;;;;;;5014296;28;20176;-74
2023/06/14 08:24:24;;;;;;;7.57;7.00;;;38.40;1.00;;;;;;5014759;28;20222;-74
2023/06/14 08:26:50;;;;;;;6.77;6.27;;;37.50;1.00;;;;;;5014352;28;20462;-74
2023/06/14 08:29:15;;;;;;;9.73;7.77;;;37.30;1.00;;;;;;5014508;28;20431;-75
2023/06/14 08:31:41;;;;;;;7.90;7.40;;;36.50;1.00;;;;;;5015574;28;20484;-74
2023/06/14 08:34:07;;;;;;;6.53;6.13;;;35.20;1.00;;;;;;5014398;28;20195;-74
2023/06/14 08:36:32;;;;;;;7.90;7.10;;;34.80;1.00;;;;;;5014639;28;20182;-75
2023/06/14 08:38:58;;;;;;;7.13;6.53;;;35.00;1.00;;;;;;5012686;28;20215;-75
2023/06/14 08:41:27;;;;;;;6.83;6.23;;;35.40;1.00;;;;;;5015112;28;20168;-74
2023/06/14 08:43:52;;;;;;;6.90;6.30;;;35.50;1.00;;;;;;5014035;28;20204;-74
2023/06/14 08:46:22;;;;;;;6.83;6.17;;;35.60;1.00;;;;;;5014305;28;20459;-75
2023/06/14 08:48:52;;;;;;;7.70;6.83;;;35.50;1.00;;;;;;5013893;28;20246;-74
2023/06/14 08:51:22;;;;;;;7.40;6.90;;;36.60;1.00;;;;;;5014749;28;20410;-75
2023/06/14 08:53:52;;;;;;;6.70;6.10;;;36.70;1.00;;;;;;5013821;28;20450;-75
2023/06/14 08:56:20;;;;;;;6.97;6.47;;;36.40;1.00;;;;;;5013934;28;20481;-74
2023/06/14 08:58:48;;;;;;;8.00;6.83;;;36.90;1.00;;;;;;5013829;28;20441;-75
2023/06/14 09:01:14;;;;;;;6.87;6.37;;;36.30;1.00;;;;;;5013590;28;20463;-75
2023/06/14 09:03:41;;;;;;;7.20;6.70;;;34.60;1.00;;;;;;5014405;28;20438;-74
2023/06/14 09:06:08;;;;;;;8.03;7.23;;;34.50;1.00;;;;;;5012537;28;20937;-74
2023/06/14 09:08:35;;;;;;;7.10;6.60;;;33.70;1.00;;;;;;5013113;28;20407;-75
2023/06/14 09:11:02;;;;;;;7.40;6.63;;;33.70;1.00;;;;;;5014416;28;20419;-75
2023/06/14 09:13:28;;;;;;;6.50;5.97;;;33.30;1.00;;;;;;5013039;28;20402;-74
2023/06/14 09:15:54;;;;;;;6.63;6.13;;;32.80;1.00;;;;;;5012324;28;20445;-74
2023/06/14 09:18:20;;;;;;;6.70;6.30;;;32.70;1.00;;;;;;5012921;28;20417;-74
2023/06/14 09:20:47;;;;;;;6.60;6.10;;;30.40;1.00;;;;;;5013708;28;20465;-74
2023/06/14 09:23:13;;;;;;;8.23;7.40;;;28.10;1.00;;;;;;5013408;28;20168;-73
2023/06/14 09:25:45;;;;;;;7.53;6.90;;;26.50;1.00;;;;;;5012978;28;20473;-73
2023/06/14 09:28:11;;;;;;;8.00;7.17;;;25.60;1.00;;;;;;5013272;28;20609;-74
2023/06/14 09:30:40;;;;;;;7.70;6.90;;;25.00;1.00;;;;;;5013189;28;20442;-74
2023/06/14 09:33:06;;;;;;;7.53;6.83;;;24.60;1.00;;;;;;5013255;28;20176;-73
2023/06/14 09:35:32;;;;;;;7.47;6.70;;;24.20;1.00;;;;;;5013605;28;20477;-73
2023/06/14 09:37:58;;;;;;;6.87;6.20;;;23.90;1.00;;;;;;5013017;28;20187;-73
2023/06/14 09:40:23;;;;;;;6.53;6.03;;;23.90;1.00;;;;;;5013428;28;20541;-73
2023/06/14 09:42:49;;;;;;;7.63;6.93;;;23.80;1.00;;;;;;5013256;28;20172;-75
2023/06/14 09:45:21;;;;;;;10.33;6.90;;;23.60;1.00;;;;;;5012943;28;20191;-74
2023/06/14 09:47:49;;;;;;;9.63;6.73;;;23.70;1.00;;;;;;5012613;28;20419;-75
2023/06/14 09:50:15;;;;;;;7.00;5.97;;;23.70;1.00;;;;;;5013557;28;20470;-75
2023/06/14 09:52:44;;;;;;;6.10;5.70;;;23.70;1.00;;;;;;5013853;28;20407;-74
2023/06/14 09:55:13;;;;;;;6.80;5.60;;;23.70;1.00;;;;;;5013865;28;20652;-74
2023/06/14 09:57:42;;;;;;;6.67;6.07;;;23.70;1.00;;;;;;5014041;28;20415;-74
2023/06/14 10:00:11;;;;;;;6.33;5.83;;;24.00;1.00;;;;;;5014366;28;20431;-75
2023/06/14 10:02:38;;;;;;;7.03;6.40;;;24.00;1.00;;;;;;5013778;28;20470;-75
2023/06/14 10:05:09;;;;;;;6.30;5.80;;;23.90;1.00;;;;;;5013916;28;20478;-74
2023/06/14 10:07:59;;;;;;;6.03;5.63;;;23.90;1.00;;;;;;5013690;28;20414;-74
2023/06/14 10:10:25;;;;;;;7.33;5.80;;;23.90;1.00;;;;;;5013359;28;20423;-75
2023/06/14 10:12:51;;;;;;;5.70;5.20;;;23.80;1.00;;;;;;5013019;28;20916;-74
2023/06/14 10:15:25;;;;;;;6.33;5.83;;;23.70;1.00;;;;;;5014406;28;20180;-76
2023/06/14 10:18:06;;;;;;;5.97;5.47;;;23.80;1.00;;;;;;5012067;28;21015;-75
2023/06/14 10:21:08;;;;;;;8.30;7.60;;;23.90;1.00;;;;;;5013113;28;20541;-75
2023/06/14 10:23:38;;;;;;;6.40;5.90;;;24.10;1.00;;;;;;5013057;28;20410;-74
2023/06/14 10:26:04;;;;;;;6.07;5.57;;;24.40;1.00;;;;;;5012411;28;20615;-74
2023/06/14 10:28:32;;;;;;;6.07;5.60;;;24.60;1.00;;;;;;5013579;28;20411;-75
2023/06/14 10:31:12;;;;;;;6.37;5.67;;;25.00;1.00;;;;;;5014587;28;20443;-75
2023/06/14 10:33:56;;;;;;;7.13;6.43;;;25.00;1.00;;;;;;5012153;28;20494;-74
2023/06/14 10:36:22;;;;;;;6.33;5.80;;;25.00;1.00;;;;;;5013068;28;20410;-74
2023/06/14 10:39:17;;;;;;;6.90;6.10;;;25.10;1.00;;;;;;5012482;28;20545;-75
2023/06/14 10:41:54;;;;;;;5.90;5.40;;;25.10;1.00;;;;;;5011527;28;20580;-74
2023/06/14 10:44:19;;;;;;;6.27;5.87;;;25.20;1.00;;;;;;5012142;28;20488;-73
2023/06/14 10:46:54;;;;;;;6.93;6.03;;;25.30;1.00;;;;;;5012125;28;20975;-73
2023/06/14 10:49:42;;;;;;;6.70;5.60;;;25.00;1.00;;;;;;5013490;28;20191;-73
2023/06/14 10:52:16;;;;;;;6.70;6.20;;;24.90;1.00;;;;;;5011977;28;20414;-74
2023/06/14 10:55:06;;;;;;;6.90;6.30;;;25.10;1.00;;;;;;5011844;28;20786;-73
2023/06/14 10:57:45;;;;;;;6.30;5.70;;;25.30;1.00;;;;;;5012677;28;20893;-73
2023/06/14 11:00:13;;;;;;;6.30;5.70;;;25.50;1.00;;;;;;5011791;28;20492;-74
2023/06/14 11:03:00;;;;;;;7.03;6.43;;;25.40;1.00;;;;;;5012511;28;20765;-74
2023/06/14 11:05:27;;;;;;;9.03;6.20;;;25.00;1.00;;;;;;5012305;28;20462;-74
2023/06/14 11:08:33;;;;;;;6.40;5.80;;;25.30;1.00;;;;;;5011645;28;20490;-74
2023/06/14 11:11:06;;;;;;;6.27;5.83;;;25.60;1.00;;;;;;5012519;28;20403;-74
2023/06/14 11:13:31;;;;;;;6.23;5.73;;;25.50;1.00;;;;;;5012166;28;20464;-73
2023/06/14 11:15:58;;;;;;;7.67;6.13;;;25.80;1.00;;;;;;5012152;28;20505;-74
2023/06/14 11:18:24;;;;;;;6.97;6.40;;;25.90;1.00;;;;;;5012058;28;20291;-74
2023/06/14 11:20:50;;;;;;;7.53;6.80;;;26.10;1.00;;;;;;5011897;28;20466;-75
2023/06/14 11:23:16;;;;;;;7.03;6.33;;;26.30;1.00;;;;;;5011996;28;20445;-74
2023/06/14 11:25:41;;;;;;;6.63;6.10;;;26.10;1.00;;;;;;5012451;28;20750;-74
2023/06/14 11:28:07;;;;;;;7.17;6.57;;;25.90;1.00;;;;;;5012627;28;20214;-73
2023/06/14 11:30:33;;;;;;;6.40;5.90;;;25.90;1.00;;;;;;5011889;28;20526;-73
2023/06/14 11:32:58;;;;;;;7.03;6.43;;;25.90;1.00;;;;;;5011840;28;20199;-74
2023/06/14 11:35:26;;;;;;;7.57;6.97;;;25.90;1.00;;;;;;5012080;28;20200;-74
2023/06/14 11:37:57;;;;;;;6.60;6.07;;;25.80;1.00;;;;;;5011956;28;20183;-73
2023/06/14 11:40:26;;;;;;;7.10;6.40;;;25.70;1.00;;;;;;5011634;28;20459;-73
2023/06/14 11:43:02;;;;;;;5.60;5.20;;;25.70;1.00;;;;;;5011481;28;20411;-73
2023/06/14 11:45:29;;;;;;;5.93;5.47;;;25.90;1.00;;;;;;5011937;28;20512;-73
2023/06/14 11:47:58;;;;;;;7.80;6.77;;;25.90;1.00;;;;;;5012692;28;20904;-73
2023/06/14 11:50:24;;;;;;;6.10;5.60;;;25.70;1.00;;;;;;5011998;28;20855;-73
2023/06/14 11:52:55;;;;;;;7.00;5.50;;;25.70;1.00;;;;;;5011817;28;20765;-73
2023/06/14 11:55:24;;;;;;;14.27;6.40;;;25.80;1.00;;;;;;5015431;28;20415;-74
2023/06/14 11:57:50;;;;;;;6.77;5.97;;;26.20;1.00;;;;;;5015359;28;20512;-73
2023/06/14 12:00:17;;;;;;;6.40;5.97;;;26.50;1.00;;;;;;5015520;28;20442;-73
2023/06/14 12:02:51;;;;;;;6.73;6.13;;;26.70;1.00;;;;;;5015207;28;20441;-73
2023/06/14 12:05:21;;;;;;;6.33;5.87;;;26.60;1.00;;;;;;5015424;28;20453;-76
2023/06/14 12:07:47;;;;;;;5.80;5.40;;;26.50;1.00;;;;;;5014960;28;20421;-76
2023/06/14 12:10:14;;;;;;;6.50;6.00;;;26.30;1.00;;;;;;5014888;28;20884;-73
2023/06/14 12:12:40;;;;;;;6.97;6.30;;;26.20;1.00;;;;;;5014237;28;20184;-74
2023/06/14 12:15:11;;;;;;;10.93;7.83;;;26.10;1.00;;;;;;5014574;28;20539;-75
2023/06/14 12:17:41;;;;;;;21.87;9.30;;;26.30;1.00;;;;;;5014469;28;20418;-74
2023/06/14 12:20:13;;;;;;;6.80;6.13;;;26.10;1.00;;;;;;5014367;28;20460;-74
2023/06/14 12:22:47;;;;;;;6.80;6.30;;;26.00;1.00;;;;;;5014285;28;20415;-74
2023/06/14 12:25:32;;;;;;;6.23;5.73;;;26.00;1.00;;;;;;5015077;28;20935;-76
2023/06/14 12:28:05;;;;;;;6.53;6.03;;;26.00;1.00;;;;;;5014947;28;20461;-76
2023/06/14 12:30:31;;;;;;;8.23;7.27;;;26.00;1.00;;;;;;5013446;28;20439;-76
2023/06/14 12:32:57;;;;;;;7.50;6.87;;;26.10;1.00;;;;;;5014464;28;20403;-74
2023/06/14 12:35:23;;;;;;;6.07;5.57;;;26.10;1.00;;;;;;5014429;28;20423;-74
2023/06/14 12:37:48;;;;;;;7.27;6.60;;;26.00;1.00;;;;;;5014607;28;20207;-75
2023/06/14 12:40:14;;;;;;;6.50;6.00;;;26.00;1.00;;;;;;5014537;28;20250;-75
2023/06/14 12:42:41;;;;;;;7.33;6.77;;;26.00;1.00;;;;;;5014075;28;20208;-74
2023/06/14 12:45:07;;;;;;;6.27;5.80;;;26.10;1.00;;;;;;5014233;28;20550;-75
2023/06/14 12:47:33;;;;;;;7.20;6.70;;;26.10;1.00;;;;;;5014663;28;20446;-75
2023/06/14 12:49:58;;;;;;;6.33;5.93;;;26.10;1.00;;;;;;5014685;28;20434;-75
2023/06/14 12:52:24;;;;;;;6.10;5.50;;;26.00;1.00;;;;;;5014068;28;20183;-76
2023/06/14 12:54:50;;;;;;;7.07;6.37;;;26.30;1.00;;;;;;5013910;28;20218;-75
2023/06/14 12:57:15;;;;;;;24.60;9.90;;;26.40;1.00;;;;;;5013990;28;20184;-75
2023/06/14 12:59:41;;;;;;;6.50;5.80;;;26.40;1.00;;;;;;5014054;28;20477;-75